sensor_id;sensor_type;location;lat;lon;timestamp;P1;durP1;ratioP1;P2;durP2;ratioP2
27804;SDS011;15183;51.350;11.102;2022-08-25T00:01:52;1.20;;;1.10;;
27804;SDS011;15183;51.350;11.102;2022-08-25T00:04:26;2.83;;;1.33;;
27804;SDS011;15183;51.350;11.102;2022-08-25T00:06:54;4.30;;;1.80;;
27804;SDS011;15183;51.350;11.102;2022-08-25T00:09:22;2.55;;;1.60;;
27804;SDS011;15183;51.350;11.102;2022-08-25T00:11:52;1.80;;;1.27;;
27804;SDS011;15183;51.350;11.102;2022-08-25T00:14:20;2.08;;;1.30;;
27804;SDS011;15183;51.350;11.102;2022-08-25T00:16:53;1.45;;;1.35;;
27804;SDS011;15183;51.350;11.102;2022-08-25T00:19:21;3.17;;;1.73;;
27804;SDS011;15183;51.350;11.102;2022-08-25T00:21:53;4.00;;;1.67;;
27804;SDS011;15183;51.350;11.102;2022-08-25T00:24:20;1.90;;;1.60;;
27804;SDS011;15183;51.350;11.102;2022-08-25T00:26:50;2.22;;;1.50;;
27804;SDS011;15183;51.350;11.102;2022-08-25T00:29:19;2.35;;;1.58;;
27804;SDS011;15183;51.350;11.102;2022-08-25T00:31:50;1.98;;;1.40;;
27804;SDS011;15183;51.350;11.102;2022-08-25T00:34:21;1.70;;;1.60;;
27804;SDS011;15183;51.350;11.102;2022-08-25T00:36:52;4.18;;;2.17;;
27804;SDS011;15183;51.350;11.102;2022-08-25T00:39:20;2.25;;;1.75;;
27804;SDS011;15183;51.350;11.102;2022-08-25T00:41:49;7.95;;;1.90;;
27804;SDS011;15183;51.350;11.102;2022-08-25T00:44:18;1.70;;;1.60;;
27804;SDS011;15183;51.350;11.102;2022-08-25T00:46:46;2.55;;;1.88;;
27804;SDS011;15183;51.350;11.102;2022-08-25T00:49:29;3.47;;;1.52;;
27804;SDS011;15183;51.350;11.102;2022-08-25T00:52:21;2.03;;;1.83;;
27804;SDS011;15183;51.350;11.102;2022-08-25T00:57:32;1.75;;;1.58;;
27804;SDS011;15183;51.350;11.102;2022-08-25T01:00:05;3.22;;;1.83;;
27804;SDS011;15183;51.350;11.102;2022-08-25T01:02:38;4.22;;;1.85;;
27804;SDS011;15183;51.350;11.102;2022-08-25T01:05:05;2.22;;;1.88;;
27804;SDS011;15183;51.350;11.102;2022-08-25T01:07:32;4.72;;;2.17;;
27804;SDS011;15183;51.350;11.102;2022-08-25T01:09:59;3.42;;;1.92;;
27804;SDS011;15183;51.350;11.102;2022-08-25T01:12:26;2.05;;;1.58;;
27804;SDS011;15183;51.350;11.102;2022-08-25T01:14:52;4.80;;;1.92;;
27804;SDS011;15183;51.350;11.102;2022-08-25T01:17:21;2.95;;;1.80;;
27804;SDS011;15183;51.350;11.102;2022-08-25T01:19:47;4.32;;;1.52;;
27804;SDS011;15183;51.350;11.102;2022-08-25T01:22:14;4.85;;;2.10;;
27804;SDS011;15183;51.350;11.102;2022-08-25T01:25:44;2.75;;;1.75;;
27804;SDS011;15183;51.350;11.102;2022-08-25T01:28:09;2.78;;;1.50;;
27804;SDS011;15183;51.350;11.102;2022-08-25T01:30:35;2.40;;;2.20;;
27804;SDS011;15183;51.350;11.102;2022-08-25T01:33:06;3.03;;;1.55;;
27804;SDS011;15183;51.350;11.102;2022-08-25T01:35:35;3.08;;;2.28;;
27804;SDS011;15183;51.350;11.102;2022-08-25T01:38:03;2.70;;;1.80;;
27804;SDS011;15183;51.350;11.102;2022-08-25T01:40:32;2.90;;;2.45;;
27804;SDS011;15183;51.350;11.102;2022-08-25T01:45:38;4.43;;;1.90;;
27804;SDS011;15183;51.350;11.102;2022-08-25T01:48:08;3.63;;;2.53;;
27804;SDS011;15183;51.350;11.102;2022-08-25T01:50:36;2.83;;;2.30;;
27804;SDS011;15183;51.350;11.102;2022-08-25T01:55:30;2.97;;;1.90;;
27804;SDS011;15183;51.350;11.102;2022-08-25T01:58:23;5.00;;;2.10;;
27804;SDS011;15183;51.350;11.102;2022-08-25T02:00:57;6.55;;;2.22;;
27804;SDS011;15183;51.350;11.102;2022-08-25T02:03:26;5.63;;;2.30;;
27804;SDS011;15183;51.350;11.102;2022-08-25T02:05:54;3.85;;;2.05;;
27804;SDS011;15183;51.350;11.102;2022-08-25T02:08:23;7.25;;;1.90;;
27804;SDS011;15183;51.350;11.102;2022-08-25T02:10:51;5.40;;;2.40;;
27804;SDS011;15183;51.350;11.102;2022-08-25T02:13:18;2.05;;;1.85;;
27804;SDS011;15183;51.350;11.102;2022-08-25T02:15:46;2.83;;;1.85;;
27804;SDS011;15183;51.350;11.102;2022-08-25T02:18:17;5.03;;;2.22;;
27804;SDS011;15183;51.350;11.102;2022-08-25T02:20:45;4.57;;;2.58;;
27804;SDS011;15183;51.350;11.102;2022-08-25T02:23:12;4.20;;;2.58;;
27804;SDS011;15183;51.350;11.102;2022-08-25T02:25:39;4.90;;;2.47;;
27804;SDS011;15183;51.350;11.102;2022-08-25T02:28:07;3.80;;;2.45;;
27804;SDS011;15183;51.350;11.102;2022-08-25T02:30:36;3.67;;;2.35;;
27804;SDS011;15183;51.350;11.102;2022-08-25T02:33:04;3.22;;;2.20;;
27804;SDS011;15183;51.350;11.102;2022-08-25T02:35:31;2.78;;;2.25;;
27804;SDS011;15183;51.350;11.102;2022-08-25T02:37:57;2.22;;;2.00;;
27804;SDS011;15183;51.350;11.102;2022-08-25T02:40:24;2.10;;;1.92;;
27804;SDS011;15183;51.350;11.102;2022-08-25T02:42:50;4.22;;;2.35;;
27804;SDS011;15183;51.350;11.102;2022-08-25T02:45:17;2.65;;;2.03;;
27804;SDS011;15183;51.350;11.102;2022-08-25T02:47:44;2.60;;;2.40;;
27804;SDS011;15183;51.350;11.102;2022-08-25T02:50:11;4.30;;;2.60;;
27804;SDS011;15183;51.350;11.102;2022-08-25T02:52:38;2.90;;;1.88;;
27804;SDS011;15183;51.350;11.102;2022-08-25T02:55:06;3.47;;;2.20;;
27804;SDS011;15183;51.350;11.102;2022-08-25T02:57:38;2.85;;;2.08;;
27804;SDS011;15183;51.350;11.102;2022-08-25T03:00:07;3.55;;;2.63;;
27804;SDS011;15183;51.350;11.102;2022-08-25T03:02:38;2.42;;;2.17;;
27804;SDS011;15183;51.350;11.102;2022-08-25T03:05:06;5.32;;;2.63;;
27804;SDS011;15183;51.350;11.102;2022-08-25T03:07:34;4.32;;;2.80;;
27804;SDS011;15183;51.350;11.102;2022-08-25T03:10:05;2.45;;;2.25;;
27804;SDS011;15183;51.350;11.102;2022-08-25T03:12:36;6.70;;;2.03;;
27804;SDS011;15183;51.350;11.102;2022-08-25T03:15:02;2.70;;;2.15;;
27804;SDS011;15183;51.350;11.102;2022-08-25T03:17:30;5.95;;;2.47;;
27804;SDS011;15183;51.350;11.102;2022-08-25T03:19:56;2.65;;;2.10;;
27804;SDS011;15183;51.350;11.102;2022-08-25T03:22:23;5.07;;;2.60;;
27804;SDS011;15183;51.350;11.102;2022-08-25T03:24:49;2.65;;;2.03;;
27804;SDS011;15183;51.350;11.102;2022-08-25T03:27:16;3.80;;;2.28;;
27804;SDS011;15183;51.350;11.102;2022-08-25T03:29:42;4.38;;;2.20;;
27804;SDS011;15183;51.350;11.102;2022-08-25T03:32:08;5.10;;;2.50;;
27804;SDS011;15183;51.350;11.102;2022-08-25T03:34:35;2.70;;;2.25;;
27804;SDS011;15183;51.350;11.102;2022-08-25T03:37:02;5.40;;;2.78;;
27804;SDS011;15183;51.350;11.102;2022-08-25T03:39:30;3.03;;;2.38;;
27804;SDS011;15183;51.350;11.102;2022-08-25T03:41:56;3.20;;;2.58;;
27804;SDS011;15183;51.350;11.102;2022-08-25T03:44:23;3.25;;;2.15;;
27804;SDS011;15183;51.350;11.102;2022-08-25T03:46:50;3.42;;;2.47;;
27804;SDS011;15183;51.350;11.102;2022-08-25T03:49:18;2.92;;;2.20;;
27804;SDS011;15183;51.350;11.102;2022-08-25T03:51:48;2.60;;;2.40;;
27804;SDS011;15183;51.350;11.102;2022-08-25T03:54:19;3.03;;;2.47;;
27804;SDS011;15183;51.350;11.102;2022-08-25T03:56:48;2.53;;;2.10;;
27804;SDS011;15183;51.350;11.102;2022-08-25T03:59:14;4.28;;;2.65;;
27804;SDS011;15183;51.350;11.102;2022-08-25T04:01:41;2.97;;;2.67;;
27804;SDS011;15183;51.350;11.102;2022-08-25T04:04:10;3.40;;;2.38;;
27804;SDS011;15183;51.350;11.102;2022-08-25T04:06:40;4.32;;;2.67;;
27804;SDS011;15183;51.350;11.102;2022-08-25T04:09:08;5.97;;;2.95;;
27804;SDS011;15183;51.350;11.102;2022-08-25T04:11:36;4.00;;;2.95;;
27804;SDS011;15183;51.350;11.102;2022-08-25T04:14:02;4.15;;;2.83;;
27804;SDS011;15183;51.350;11.102;2022-08-25T04:16:31;3.70;;;2.42;;
27804;SDS011;15183;51.350;11.102;2022-08-25T04:19:00;2.88;;;2.38;;
27804;SDS011;15183;51.350;11.102;2022-08-25T04:21:30;3.55;;;2.05;;
27804;SDS011;15183;51.350;11.102;2022-08-25T04:23:57;3.45;;;2.28;;
27804;SDS011;15183;51.350;11.102;2022-08-25T04:26:31;4.15;;;2.65;;
27804;SDS011;15183;51.350;11.102;2022-08-25T04:29:03;7.30;;;2.72;;
27804;SDS011;15183;51.350;11.102;2022-08-25T04:31:32;5.32;;;3.10;;
27804;SDS011;15183;51.350;11.102;2022-08-25T04:34:00;3.45;;;2.35;;
27804;SDS011;15183;51.350;11.102;2022-08-25T04:36:28;4.65;;;2.88;;
27804;SDS011;15183;51.350;11.102;2022-08-25T04:38:55;3.33;;;2.72;;
27804;SDS011;15183;51.350;11.102;2022-08-25T04:41:22;2.83;;;2.53;;
27804;SDS011;15183;51.350;11.102;2022-08-25T04:43:50;5.00;;;3.10;;
27804;SDS011;15183;51.350;11.102;2022-08-25T04:46:21;3.25;;;2.72;;
27804;SDS011;15183;51.350;11.102;2022-08-25T04:48:50;3.78;;;3.00;;
27804;SDS011;15183;51.350;11.102;2022-08-25T04:51:21;3.47;;;2.55;;
27804;SDS011;15183;51.350;11.102;2022-08-25T04:53:51;4.50;;;2.33;;
27804;SDS011;15183;51.350;11.102;2022-08-25T04:56:19;3.53;;;2.50;;
27804;SDS011;15183;51.350;11.102;2022-08-25T04:58:50;2.75;;;2.50;;
27804;SDS011;15183;51.350;11.102;2022-08-25T05:01:19;4.07;;;2.00;;
27804;SDS011;15183;51.350;11.102;2022-08-25T05:03:53;4.88;;;2.55;;
27804;SDS011;15183;51.350;11.102;2022-08-25T05:06:22;3.20;;;2.40;;
27804;SDS011;15183;51.350;11.102;2022-08-25T05:08:48;2.95;;;2.65;;
27804;SDS011;15183;51.350;11.102;2022-08-25T05:11:16;5.38;;;3.08;;
27804;SDS011;15183;51.350;11.102;2022-08-25T05:13:44;4.55;;;2.38;;
27804;SDS011;15183;51.350;11.102;2022-08-25T05:16:12;3.63;;;2.53;;
27804;SDS011;15183;51.350;11.102;2022-08-25T05:18:40;3.53;;;2.72;;
27804;SDS011;15183;51.350;11.102;2022-08-25T05:21:11;4.57;;;3.05;;
27804;SDS011;15183;51.350;11.102;2022-08-25T05:23:41;3.58;;;2.90;;
27804;SDS011;15183;51.350;11.102;2022-08-25T05:26:09;3.78;;;3.38;;
27804;SDS011;15183;51.350;11.102;2022-08-25T05:28:39;5.25;;;3.35;;
27804;SDS011;15183;51.350;11.102;2022-08-25T05:31:07;4.43;;;3.03;;
27804;SDS011;15183;51.350;11.102;2022-08-25T05:33:38;3.83;;;3.03;;
27804;SDS011;15183;51.350;11.102;2022-08-25T05:36:06;3.40;;;3.10;;
27804;SDS011;15183;51.350;11.102;2022-08-25T05:38:36;8.65;;;3.22;;
27804;SDS011;15183;51.350;11.102;2022-08-25T05:41:04;6.05;;;3.17;;
27804;SDS011;15183;51.350;11.102;2022-08-25T05:43:36;5.50;;;3.20;;
27804;SDS011;15183;51.350;11.102;2022-08-25T05:46:04;7.63;;;3.35;;
27804;SDS011;15183;51.350;11.102;2022-08-25T05:48:32;3.63;;;3.17;;
27804;SDS011;15183;51.350;11.102;2022-08-25T05:51:00;4.72;;;3.13;;
27804;SDS011;15183;51.350;11.102;2022-08-25T05:53:28;5.55;;;3.75;;
27804;SDS011;15183;51.350;11.102;2022-08-25T05:55:56;6.03;;;4.25;;
27804;SDS011;15183;51.350;11.102;2022-08-25T05:58:25;6.40;;;3.22;;
27804;SDS011;15183;51.350;11.102;2022-08-25T06:00:54;4.43;;;3.35;;
27804;SDS011;15183;51.350;11.102;2022-08-25T06:03:22;10.82;;;3.30;;
27804;SDS011;15183;51.350;11.102;2022-08-25T06:05:49;4.55;;;3.35;;
27804;SDS011;15183;51.350;11.102;2022-08-25T06:08:15;3.90;;;3.40;;
27804;SDS011;15183;51.350;11.102;2022-08-25T06:10:42;6.13;;;3.05;;
27804;SDS011;15183;51.350;11.102;2022-08-25T06:13:08;3.75;;;3.15;;
27804;SDS011;15183;51.350;11.102;2022-08-25T06:15:34;3.53;;;3.00;;
27804;SDS011;15183;51.350;11.102;2022-08-25T06:18:01;4.88;;;3.60;;
27804;SDS011;15183;51.350;11.102;2022-08-25T06:20:28;5.72;;;3.90;;
27804;SDS011;15183;51.350;11.102;2022-08-25T06:22:56;3.55;;;2.83;;
27804;SDS011;15183;51.350;11.102;2022-08-25T06:25:24;4.30;;;3.45;;
27804;SDS011;15183;51.350;11.102;2022-08-25T06:27:53;6.35;;;3.45;;
27804;SDS011;15183;51.350;11.102;2022-08-25T06:30:20;4.68;;;3.45;;
27804;SDS011;15183;51.350;11.102;2022-08-25T06:32:49;5.07;;;3.95;;
27804;SDS011;15183;51.350;11.102;2022-08-25T06:35:16;5.65;;;4.05;;
27804;SDS011;15183;51.350;11.102;2022-08-25T06:37:44;4.78;;;3.80;;
27804;SDS011;15183;51.350;11.102;2022-08-25T06:40:11;5.22;;;3.67;;
27804;SDS011;15183;51.350;11.102;2022-08-25T06:42:39;5.93;;;4.22;;
27804;SDS011;15183;51.350;11.102;2022-08-25T06:45:06;6.35;;;5.40;;
27804;SDS011;15183;51.350;11.102;2022-08-25T06:47:33;7.43;;;5.03;;
27804;SDS011;15183;51.350;11.102;2022-08-25T06:50:00;11.63;;;5.63;;
27804;SDS011;15183;51.350;11.102;2022-08-25T06:52:28;9.13;;;5.88;;
27804;SDS011;15183;51.350;11.102;2022-08-25T06:54:56;10.75;;;6.38;;
27804;SDS011;15183;51.350;11.102;2022-08-25T06:57:22;9.30;;;7.10;;
27804;SDS011;15183;51.350;11.102;2022-08-25T06:59:49;11.73;;;6.95;;
27804;SDS011;15183;51.350;11.102;2022-08-25T07:02:16;11.38;;;6.32;;
27804;SDS011;15183;51.350;11.102;2022-08-25T07:04:42;11.27;;;7.35;;
27804;SDS011;15183;51.350;11.102;2022-08-25T07:07:09;9.10;;;6.15;;
27804;SDS011;15183;51.350;11.102;2022-08-25T07:09:35;10.90;;;6.38;;
27804;SDS011;15183;51.350;11.102;2022-08-25T07:12:02;8.45;;;6.45;;
27804;SDS011;15183;51.350;11.102;2022-08-25T07:14:29;11.73;;;7.55;;
27804;SDS011;15183;51.350;11.102;2022-08-25T07:16:55;13.45;;;7.55;;
27804;SDS011;15183;51.350;11.102;2022-08-25T07:19:25;11.25;;;7.50;;
27804;SDS011;15183;51.350;11.102;2022-08-25T07:21:52;13.30;;;8.27;;
27804;SDS011;15183;51.350;11.102;2022-08-25T07:24:19;10.57;;;6.72;;
27804;SDS011;15183;51.350;11.102;2022-08-25T07:26:46;13.63;;;7.80;;
27804;SDS011;15183;51.350;11.102;2022-08-25T07:29:15;14.05;;;7.32;;
27804;SDS011;15183;51.350;11.102;2022-08-25T07:31:46;9.05;;;7.30;;
27804;SDS011;15183;51.350;11.102;2022-08-25T07:34:13;14.35;;;7.97;;
27804;SDS011;15183;51.350;11.102;2022-08-25T07:36:58;11.98;;;7.43;;
27804;SDS011;15183;51.350;11.102;2022-08-25T07:39:25;12.65;;;7.93;;
27804;SDS011;15183;51.350;11.102;2022-08-25T07:41:52;12.55;;;7.97;;
27804;SDS011;15183;51.350;11.102;2022-08-25T07:44:20;9.15;;;6.60;;
27804;SDS011;15183;51.350;11.102;2022-08-25T07:46:47;10.77;;;7.35;;
27804;SDS011;15183;51.350;11.102;2022-08-25T07:49:15;9.77;;;7.32;;
27804;SDS011;15183;51.350;11.102;2022-08-25T07:51:43;14.50;;;7.15;;
27804;SDS011;15183;51.350;11.102;2022-08-25T07:54:11;9.68;;;7.68;;
27804;SDS011;15183;51.350;11.102;2022-08-25T07:56:37;11.18;;;7.68;;
27804;SDS011;15183;51.350;11.102;2022-08-25T07:59:06;9.00;;;7.38;;
27804;SDS011;15183;51.350;11.102;2022-08-25T08:01:33;13.48;;;8.05;;
27804;SDS011;15183;51.350;11.102;2022-08-25T08:04:00;13.85;;;8.68;;
27804;SDS011;15183;51.350;11.102;2022-08-25T08:06:27;9.70;;;7.43;;
27804;SDS011;15183;51.350;11.102;2022-08-25T08:08:54;13.82;;;8.10;;
27804;SDS011;15183;51.350;11.102;2022-08-25T08:11:31;12.30;;;8.20;;
27804;SDS011;15183;51.350;11.102;2022-08-25T08:14:02;14.55;;;8.10;;
27804;SDS011;15183;51.350;11.102;2022-08-25T08:16:28;15.00;;;8.07;;
27804;SDS011;15183;51.350;11.102;2022-08-25T08:18:56;10.88;;;7.93;;
27804;SDS011;15183;51.350;11.102;2022-08-25T08:21:25;11.18;;;7.13;;
27804;SDS011;15183;51.350;11.102;2022-08-25T08:23:55;11.13;;;7.53;;
27804;SDS011;15183;51.350;11.102;2022-08-25T08:26:23;16.20;;;7.97;;
27804;SDS011;15183;51.350;11.102;2022-08-25T08:28:50;11.52;;;6.75;;
27804;SDS011;15183;51.350;11.102;2022-08-25T08:31:18;14.75;;;7.75;;
27804;SDS011;15183;51.350;11.102;2022-08-25T08:33:47;18.42;;;7.93;;
27804;SDS011;15183;51.350;11.102;2022-08-25T08:36:16;12.77;;;7.28;;
27804;SDS011;15183;51.350;11.102;2022-08-25T08:38:44;22.02;;;8.10;;
27804;SDS011;15183;51.350;11.102;2022-08-25T08:55:58;8.15;;;6.80;;
27804;SDS011;15183;51.350;11.102;2022-08-25T09:01:15;14.10;;;7.78;;
27804;SDS011;15183;51.350;11.102;2022-08-25T09:07:10;13.35;;;7.85;;
27804;SDS011;15183;51.350;11.102;2022-08-25T09:09:46;16.60;;;8.75;;
27804;SDS011;15183;51.350;11.102;2022-08-25T09:20:46;17.00;;;8.48;;
27804;SDS011;15183;51.350;11.102;2022-08-25T09:23:54;22.42;;;8.82;;
27804;SDS011;15183;51.350;11.102;2022-08-25T09:26:44;18.17;;;8.50;;
27804;SDS011;15183;51.350;11.102;2022-08-25T09:32:21;17.17;;;8.07;;
27804;SDS011;15183;51.350;11.102;2022-08-25T09:34:48;15.70;;;9.45;;
27804;SDS011;15183;51.350;11.102;2022-08-25T09:37:16;12.38;;;7.75;;
27804;SDS011;15183;51.350;11.102;2022-08-25T09:39:43;14.45;;;9.55;;
27804;SDS011;15183;51.350;11.102;2022-08-25T09:42:09;17.05;;;8.27;;
27804;SDS011;15183;51.350;11.102;2022-08-25T09:44:40;10.60;;;8.07;;
27804;SDS011;15183;51.350;11.102;2022-08-25T09:47:25;15.63;;;7.78;;
27804;SDS011;15183;51.350;11.102;2022-08-25T09:50:01;19.95;;;8.25;;
27804;SDS011;15183;51.350;11.102;2022-08-25T09:52:31;16.80;;;7.95;;
27804;SDS011;15183;51.350;11.102;2022-08-25T09:55:15;15.57;;;8.00;;
27804;SDS011;15183;51.350;11.102;2022-08-25T09:58:16;21.15;;;9.00;;
27804;SDS011;15183;51.350;11.102;2022-08-25T10:00:59;20.67;;;9.45;;
27804;SDS011;15183;51.350;11.102;2022-08-25T10:03:28;18.40;;;7.93;;
27804;SDS011;15183;51.350;11.102;2022-08-25T10:11:09;15.52;;;8.63;;
27804;SDS011;15183;51.350;11.102;2022-08-25T10:16:20;16.27;;;9.25;;
27804;SDS011;15183;51.350;11.102;2022-08-25T10:21:40;15.02;;;8.38;;
27804;SDS011;15183;51.350;11.102;2022-08-25T10:24:08;19.45;;;9.07;;
27804;SDS011;15183;51.350;11.102;2022-08-25T10:26:53;18.35;;;9.40;;
27804;SDS011;15183;51.350;11.102;2022-08-25T10:29:38;15.25;;;9.07;;
27804;SDS011;15183;51.350;11.102;2022-08-25T10:32:21;14.02;;;8.48;;
27804;SDS011;15183;51.350;11.102;2022-08-25T10:35:08;15.25;;;8.57;;
27804;SDS011;15183;51.350;11.102;2022-08-25T10:37:53;16.80;;;8.60;;
27804;SDS011;15183;51.350;11.102;2022-08-25T10:40:55;14.70;;;7.75;;
27804;SDS011;15183;51.350;11.102;2022-08-25T10:50:10;15.45;;;7.93;;
27804;SDS011;15183;51.350;11.102;2022-08-25T11:01:34;12.57;;;7.93;;
27804;SDS011;15183;51.350;11.102;2022-08-25T11:04:10;19.02;;;8.18;;
27804;SDS011;15183;51.350;11.102;2022-08-25T11:07:05;17.02;;;8.55;;
27804;SDS011;15183;51.350;11.102;2022-08-25T11:09:39;17.20;;;7.85;;
27804;SDS011;15183;51.350;11.102;2022-08-25T11:12:10;16.42;;;8.10;;
27804;SDS011;15183;51.350;11.102;2022-08-25T11:15:25;17.88;;;7.85;;
27804;SDS011;15183;51.350;11.102;2022-08-25T11:20:36;16.60;;;7.88;;
27804;SDS011;15183;51.350;11.102;2022-08-25T11:26:27;13.23;;;7.45;;
27804;SDS011;15183;51.350;11.102;2022-08-25T11:29:13;17.65;;;7.25;;
27804;SDS011;15183;51.350;11.102;2022-08-25T11:31:45;16.02;;;7.53;;
27804;SDS011;15183;51.350;11.102;2022-08-25T11:34:15;16.88;;;8.27;;
27804;SDS011;15183;51.350;11.102;2022-08-25T11:42:32;8.80;;;5.68;;
27804;SDS011;15183;51.350;11.102;2022-08-25T11:45:27;16.77;;;7.22;;
27804;SDS011;15183;51.350;11.102;2022-08-25T11:48:34;17.42;;;7.40;;
27804;SDS011;15183;51.350;11.102;2022-08-25T11:51:07;13.15;;;6.38;;
27804;SDS011;15183;51.350;11.102;2022-08-25T11:53:40;20.02;;;7.07;;
27804;SDS011;15183;51.350;11.102;2022-08-25T11:56:31;12.43;;;7.05;;
27804;SDS011;15183;51.350;11.102;2022-08-25T11:58:56;12.10;;;6.30;;
27804;SDS011;15183;51.350;11.102;2022-08-25T12:09:30;11.30;;;6.10;;
27804;SDS011;15183;51.350;11.102;2022-08-25T12:12:31;11.57;;;5.75;;
27804;SDS011;15183;51.350;11.102;2022-08-25T12:15:32;14.93;;;6.35;;
27804;SDS011;15183;51.350;11.102;2022-08-25T12:26:00;18.85;;;6.57;;
27804;SDS011;15183;51.350;11.102;2022-08-25T12:37:56;10.32;;;5.15;;
27804;SDS011;15183;51.350;11.102;2022-08-25T12:40:34;12.05;;;5.50;;
27804;SDS011;15183;51.350;11.102;2022-08-25T12:43:08;11.23;;;5.10;;
27804;SDS011;15183;51.350;11.102;2022-08-25T12:45:45;12.18;;;5.35;;
27804;SDS011;15183;51.350;11.102;2022-08-25T12:51:06;12.88;;;5.72;;
27804;SDS011;15183;51.350;11.102;2022-08-25T12:56:19;13.43;;;5.00;;
27804;SDS011;15183;51.350;11.102;2022-08-25T13:10:37;12.35;;;5.10;;
27804;SDS011;15183;51.350;11.102;2022-08-25T13:13:44;14.80;;;5.38;;
27804;SDS011;15183;51.350;11.102;2022-08-25T13:16:23;14.55;;;5.45;;
27804;SDS011;15183;51.350;11.102;2022-08-25T13:18:52;11.45;;;5.20;;
27804;SDS011;15183;51.350;11.102;2022-08-25T13:21:27;8.07;;;5.50;;
27804;SDS011;15183;51.350;11.102;2022-08-25T13:26:55;9.50;;;4.55;;
27804;SDS011;15183;51.350;11.102;2022-08-25T13:29:31;15.57;;;5.10;;
27804;SDS011;15183;51.350;11.102;2022-08-25T13:32:02;12.05;;;4.88;;
27804;SDS011;15183;51.350;11.102;2022-08-25T13:34:38;9.13;;;5.00;;
27804;SDS011;15183;51.350;11.102;2022-08-25T13:37:13;10.07;;;4.60;;
27804;SDS011;15183;51.350;11.102;2022-08-25T13:40:09;15.50;;;5.25;;
27804;SDS011;15183;51.350;11.102;2022-08-25T13:43:04;8.90;;;4.63;;
27804;SDS011;15183;51.350;11.102;2022-08-25T13:45:37;11.73;;;5.10;;
27804;SDS011;15183;51.350;11.102;2022-08-25T13:48:10;14.32;;;4.57;;
27804;SDS011;15183;51.350;11.102;2022-08-25T13:50:40;12.40;;;4.90;;
27804;SDS011;15183;51.350;11.102;2022-08-25T13:53:21;10.52;;;4.82;;
27804;SDS011;15183;51.350;11.102;2022-08-25T13:55:51;11.57;;;3.63;;
27804;SDS011;15183;51.350;11.102;2022-08-25T13:58:27;7.93;;;4.55;;
27804;SDS011;15183;51.350;11.102;2022-08-25T14:03:37;7.22;;;4.03;;
27804;SDS011;15183;51.350;11.102;2022-08-25T14:08:40;5.32;;;3.95;;
27804;SDS011;15183;51.350;11.102;2022-08-25T14:14:00;4.25;;;3.20;;
27804;SDS011;15183;51.350;11.102;2022-08-25T14:16:36;7.32;;;3.38;;
27804;SDS011;15183;51.350;11.102;2022-08-25T14:19:13;5.13;;;3.95;;
27804;SDS011;15183;51.350;11.102;2022-08-25T14:21:43;8.88;;;3.60;;
27804;SDS011;15183;51.350;11.102;2022-08-25T14:24:13;7.47;;;4.13;;
27804;SDS011;15183;51.350;11.102;2022-08-25T14:26:46;6.43;;;3.70;;
27804;SDS011;15183;51.350;11.102;2022-08-25T14:29:13;6.05;;;3.72;;
27804;SDS011;15183;51.350;11.102;2022-08-25T14:31:41;8.18;;;3.70;;
27804;SDS011;15183;51.350;11.102;2022-08-25T14:34:29;3.90;;;2.72;;
27804;SDS011;15183;51.350;11.102;2022-08-25T14:37:17;7.80;;;4.25;;
27804;SDS011;15183;51.350;11.102;2022-08-25T14:39:45;6.60;;;3.60;;
27804;SDS011;15183;51.350;11.102;2022-08-25T14:42:12;6.15;;;4.07;;
27804;SDS011;15183;51.350;11.102;2022-08-25T14:44:38;5.72;;;3.33;;
27804;SDS011;15183;51.350;11.102;2022-08-25T14:47:05;5.10;;;3.58;;
27804;SDS011;15183;51.350;11.102;2022-08-25T14:49:34;6.72;;;4.28;;
27804;SDS011;15183;51.350;11.102;2022-08-25T14:52:08;8.23;;;4.10;;
27804;SDS011;15183;51.350;11.102;2022-08-25T14:54:42;10.77;;;4.45;;
27804;SDS011;15183;51.350;11.102;2022-08-25T14:57:09;6.20;;;3.70;;
27804;SDS011;15183;51.350;11.102;2022-08-25T14:59:36;8.38;;;3.63;;
27804;SDS011;15183;51.350;11.102;2022-08-25T15:02:04;7.47;;;4.32;;
27804;SDS011;15183;51.350;11.102;2022-08-25T15:04:33;8.40;;;3.90;;
27804;SDS011;15183;51.350;11.102;2022-08-25T15:07:01;10.80;;;4.30;;
27804;SDS011;15183;51.350;11.102;2022-08-25T15:09:47;13.07;;;4.95;;
27804;SDS011;15183;51.350;11.102;2022-08-25T15:12:14;8.25;;;4.00;;
27804;SDS011;15183;51.350;11.102;2022-08-25T15:14:41;7.53;;;4.32;;
27804;SDS011;15183;51.350;11.102;2022-08-25T15:17:08;12.77;;;4.90;;
27804;SDS011;15183;51.350;11.102;2022-08-25T15:19:34;12.05;;;5.22;;
27804;SDS011;15183;51.350;11.102;2022-08-25T15:22:01;10.82;;;5.30;;
27804;SDS011;15183;51.350;11.102;2022-08-25T15:24:27;13.65;;;5.32;;
27804;SDS011;15183;51.350;11.102;2022-08-25T15:26:55;15.88;;;4.90;;
27804;SDS011;15183;51.350;11.102;2022-08-25T15:29:27;17.17;;;5.25;;
27804;SDS011;15183;51.350;11.102;2022-08-25T15:31:55;10.75;;;5.25;;
27804;SDS011;15183;51.350;11.102;2022-08-25T15:34:24;11.45;;;4.43;;
27804;SDS011;15183;51.350;11.102;2022-08-25T15:36:51;17.85;;;5.35;;
27804;SDS011;15183;51.350;11.102;2022-08-25T15:39:18;15.15;;;5.55;;
27804;SDS011;15183;51.350;11.102;2022-08-25T15:41:47;12.63;;;5.20;;
27804;SDS011;15183;51.350;11.102;2022-08-25T15:44:16;14.32;;;5.60;;
27804;SDS011;15183;51.350;11.102;2022-08-25T15:46:44;19.35;;;5.72;;
27804;SDS011;15183;51.350;11.102;2022-08-25T15:49:11;13.45;;;4.97;;
27804;SDS011;15183;51.350;11.102;2022-08-25T15:51:37;9.07;;;4.25;;
27804;SDS011;15183;51.350;11.102;2022-08-25T15:54:05;14.10;;;4.50;;
27804;SDS011;15183;51.350;11.102;2022-08-25T15:56:31;12.52;;;4.85;;
27804;SDS011;15183;51.350;11.102;2022-08-25T15:58:58;15.93;;;4.53;;
27804;SDS011;15183;51.350;11.102;2022-08-25T16:01:27;13.15;;;4.53;;
27804;SDS011;15183;51.350;11.102;2022-08-25T16:03:54;11.60;;;4.72;;
27804;SDS011;15183;51.350;11.102;2022-08-25T16:06:23;13.93;;;5.20;;
27804;SDS011;15183;51.350;11.102;2022-08-25T16:08:50;16.10;;;4.70;;
27804;SDS011;15183;51.350;11.102;2022-08-25T16:11:18;17.70;;;4.45;;
27804;SDS011;15183;51.350;11.102;2022-08-25T16:13:55;17.08;;;4.63;;
27804;SDS011;15183;51.350;11.102;2022-08-25T16:16:23;13.50;;;4.90;;
27804;SDS011;15183;51.350;11.102;2022-08-25T16:18:52;13.10;;;4.50;;
27804;SDS011;15183;51.350;11.102;2022-08-25T16:21:21;22.65;;;5.28;;
27804;SDS011;15183;51.350;11.102;2022-08-25T16:23:55;18.58;;;4.93;;
27804;SDS011;15183;51.350;11.102;2022-08-25T16:26:25;11.57;;;4.05;;
27804;SDS011;15183;51.350;11.102;2022-08-25T16:28:52;21.15;;;5.05;;
27804;SDS011;15183;51.350;11.102;2022-08-25T16:31:18;17.35;;;4.93;;
27804;SDS011;15183;51.350;11.102;2022-08-25T16:33:45;22.98;;;4.80;;
27804;SDS011;15183;51.350;11.102;2022-08-25T16:36:16;13.45;;;4.70;;
27804;SDS011;15183;51.350;11.102;2022-08-25T16:38:48;23.63;;;5.68;;
27804;SDS011;15183;51.350;11.102;2022-08-25T16:41:18;19.08;;;4.90;;
27804;SDS011;15183;51.350;11.102;2022-08-25T16:43:51;21.90;;;6.10;;
27804;SDS011;15183;51.350;11.102;2022-08-25T16:46:19;17.92;;;5.57;;
27804;SDS011;15183;51.350;11.102;2022-08-25T16:48:46;23.88;;;5.03;;
27804;SDS011;15183;51.350;11.102;2022-08-25T16:51:14;9.23;;;4.40;;
27804;SDS011;15183;51.350;11.102;2022-08-25T16:53:44;18.25;;;6.00;;
27804;SDS011;15183;51.350;11.102;2022-08-25T16:56:29;17.88;;;4.93;;
27804;SDS011;15183;51.350;11.102;2022-08-25T16:59:00;18.13;;;5.25;;
27804;SDS011;15183;51.350;11.102;2022-08-25T17:01:29;21.98;;;5.80;;
27804;SDS011;15183;51.350;11.102;2022-08-25T17:03:58;18.30;;;5.18;;